Houston Lake, Missouri
Current Conditions -  °F | °C
As of 10:54 PM on Sunday 21 Dec 2014 (Local Time) from KMKC Reporting Station
Overcast Overcast  
Wind Chill: 40°   Ceiling: 2700
Heat Index: 45°   Visibility: 10mi
Dew Point: 37°   Wind: 10mph
Humidity: 74%   Direction: 160°SSE
Pressure: 29.77"   Gusts: 21mph
Location:  39.2125°N, 94.6296°W
Report Text: KMKC 220454Z 16009G18KT 10SM OVC027 07/03 A2977 RMK AO2 SLP082 T00720028
Loading
Personal Weather Stations






























Interactive Weather Map New forecast layout! Learn more

10-Day Weather Forecast

Advertisements
Track Severe Weather on mobile